Time;durP1;ratioP1;P1;durP2;ratioP2;P2;SDS_P1;SDS_P2;PMS_P1;PMS_P2;Temp;Humidity;BMP_temperature;BMP_pressure;BME280_temperature;BME280_humidity;BME280_pressure;Samples;Min_cycle;Max_cycle;Signal;HPM_P1;HPM_P2
2022/01/31 00:06:11;;;;;;;16.80;2.70;;;;;;;1.52;70.31;98017.42;433972;1268;108910;-40
2022/01/31 00:16:24;;;;;;;24.10;3.70;;;;;;;1.52;70.41;98018.83;433524;1267;108315;-40
2022/01/31 00:26:32;;;;;;;18.90;3.60;;;;;;;1.43;70.55;98026.48;433465;1267;622693;-40
2022/01/31 00:36:38;;;;;;;14.70;2.50;;;;;;;1.44;70.20;98032.95;433816;1267;109132;-39
2022/01/31 00:56:55;;;;;;;30.00;3.50;;;;;;;1.38;70.19;98053.38;433969;1267;95357;-39
2022/01/31 01:07:02;;;;;;;14.00;2.80;;;;;;;1.41;70.32;98071.87;434000;1268;96291;-40
2022/01/31 01:17:10;;;;;;;14.00;2.70;;;;;;;1.36;70.40;98064.91;433887;1267;109895;-39
2022/01/31 01:27:18;;;;;;;17.20;3.20;;;;;;;1.32;70.36;98062.59;433874;1267;108841;-40
2022/01/31 01:37:26;;;;;;;15.40;4.00;;;;;;;1.32;70.46;98039.34;434029;1266;108864;-41
2022/01/31 01:47:33;;;;;;;19.80;3.90;;;;;;;1.23;70.73;98030.21;433860;1267;97123;-42
2022/01/31 01:57:41;;;;;;;18.40;3.30;;;;;;;1.20;70.87;98013.35;433861;1266;108734;-40
2022/01/31 02:19:44;;;;;;;13.40;3.10;;;;;;;1.03;71.48;97977.89;433655;1267;109140;-41
2022/01/31 03:13:58;;;;;;;13.50;3.60;;;;;;;0.76;73.00;97935.33;431507;1271;95537;-41
2022/01/31 03:36:49;;;;;;;13.60;2.90;;;;;;;0.76;73.32;97908.21;432072;1272;109110;-41
2022/01/31 03:47:36;;;;;;;14.80;3.30;;;;;;;0.75;73.54;97898.68;430813;1273;96359;-40
2022/01/31 03:57:44;;;;;;;31.40;4.60;;;;;;;0.71;73.66;97885.58;431999;1273;109768;-42
2022/01/31 04:08:58;;;;;;;22.90;5.30;;;;;;;0.59;73.72;97867.33;432156;1273;108853;-40
2022/01/31 04:19:19;;;;;;;10.10;3.10;;;;;;;0.50;73.75;97850.52;431046;1273;108307;-41
2022/01/31 04:30:15;;;;;;;18.30;4.30;;;;;;;0.49;73.87;97834.86;432281;1267;95935;-40
2022/01/31 05:13:40;;;;;;;22.60;5.20;;;;;;;-0.04;74.82;97775.05;433238;1266;96832;-41
2022/01/31 05:24:29;;;;;;;16.80;3.80;;;;;;;0.03;74.91;97760.22;433267;1267;96722;-40
2022/01/31 05:34:36;;;;;;;38.10;5.20;;;;;;;0.01;75.01;97745.89;433221;1268;108908;-40
2022/01/31 05:44:46;;;;;;;20.20;5.00;;;;;;;-0.07;75.18;97730.75;433271;1268;108910;-41
2022/01/31 05:54:54;;;;;;;31.70;4.50;;;;;;;-0.15;75.36;97720.45;433416;1268;97920;-41
2022/01/31 06:16:14;;;;;;;22.60;6.20;;;;;;;-0.14;75.75;97726.45;433323;1268;109294;-40
2022/01/31 06:27:10;;;;;;;28.40;8.40;;;;;;;-0.06;75.87;97729.86;433351;1267;108796;-40
2022/01/31 06:37:48;;;;;;;22.10;4.00;;;;;;;0.11;75.96;97709.75;432455;1267;98055;-40
2022/01/31 06:47:56;;;;;;;21.70;5.00;;;;;;;0.19;76.12;97693.09;433353;1268;108838;-39
2022/01/31 06:58:04;;;;;;;25.90;6.80;;;;;;;0.21;76.38;97684.08;433522;1267;108650;-39
2022/01/31 07:08:12;;;;;;;26.90;5.40;;;;;;;0.17;76.43;97675.65;433427;1267;98187;-39
2022/01/31 07:18:19;;;;;;;32.40;6.50;;;;;;;0.21;76.59;97667.20;433463;1267;111474;-42
2022/01/31 07:28:27;;;;;;;37.50;8.30;;;;;;;0.28;76.71;97661.48;433548;1267;109040;-39
2022/01/31 07:38:34;;;;;;;49.70;17.80;;;;;;;0.46;76.68;97653.04;433337;1267;108921;-42
2022/01/31 07:48:43;;;;;;;43.10;10.40;;;;;;;0.69;76.80;97645.27;433426;1267;96767;-40
2022/01/31 07:58:50;;;;;;;52.40;20.30;;;;;;;0.86;77.04;97634.16;433393;1267;109502;-39
2022/01/31 08:08:57;;;;;;;73.00;25.20;;;;;;;0.96;76.85;97620.29;433405;1266;108638;-40
2022/01/31 08:19:08;;;;;;;43.50;19.00;;;;;;;1.01;76.97;97599.64;433402;1267;96940;-42
2022/01/31 08:39:43;;;;;;;41.10;13.60;;;;;;;1.36;77.04;97573.36;433230;1268;108802;-40
2022/01/31 08:49:50;;;;;;;76.70;24.20;;;;;;;1.49;77.32;97560.29;433333;1267;97366;-40
2022/01/31 09:00:00;;;;;;;53.90;14.20;;;;;;;1.50;77.25;97544.18;433412;1267;97902;-40
2022/01/31 09:10:07;;;;;;;42.80;11.20;;;;;;;1.46;77.11;97525.66;433490;1266;111107;-41
2022/01/31 09:20:14;;;;;;;27.90;8.80;;;;;;;1.60;77.24;97509.00;433385;1267;108847;-40
2022/01/31 09:40:29;;;;;;;33.90;9.00;;;;;;;1.90;77.01;97475.27;433423;1267;111075;-41
2022/01/31 09:50:35;;;;;;;31.80;10.10;;;;;;;1.91;76.74;97455.42;433351;1267;109066;-39
2022/01/31 10:00:42;;;;;;;26.60;5.80;;;;;;;1.95;76.70;97445.59;433724;1267;109116;-40
2022/01/31 10:10:52;;;;;;;23.90;6.60;;;;;;;2.01;76.31;97439.83;433513;1267;97932;-41
2022/01/31 10:21:00;;;;;;;16.30;5.20;;;;;;;2.08;76.10;97428.54;433508;1267;108927;-40
2022/01/31 10:31:18;;;;;;;40.40;8.60;;;;;;;2.07;76.20;97420.59;433540;1267;96718;-40
2022/01/31 10:52:03;;;;;;;;;;;;;;;2.01;76.28;97402.23;433528;1267;110682;-41
2022/01/31 11:12:23;;;;;;;33.40;6.30;;;;;;;1.76;76.19;97396.93;433551;1267;108842;-41
2022/01/31 11:22:36;;;;;;;19.20;5.80;;;;;;;1.80;76.18;97383.92;433532;1267;98037;-41
2022/01/31 11:32:55;;;;;;;35.70;9.50;;;;;;;1.78;76.34;97371.42;433653;1267;108888;-41
2022/01/31 11:43:04;;;;;;;47.20;13.70;;;;;;;1.63;76.45;97374.55;433709;1267;109028;-42
2022/01/31 11:53:12;;;;;;;25.60;7.20;;;;;;;1.49;76.84;97369.28;433463;1267;97893;-40
2022/01/31 12:03:21;;;;;;;40.20;10.50;;;;;;;1.27;76.78;97375.63;433672;1267;111418;-42
2022/01/31 12:13:38;;;;;;;28.40;7.30;;;;;;;1.22;77.26;97362.94;433584;1267;108608;-42
2022/01/31 12:23:48;;;;;;;43.50;7.50;;;;;;;1.31;77.64;97350.91;429618;1267;5424754;-41
2022/01/31 12:33:56;;;;;;;36.00;8.20;;;;;;;1.52;77.90;97338.45;433045;1268;111089;-42
2022/01/31 13:04:56;;;;;;;34.90;9.00;;;;;;;1.55;78.26;97296.60;432989;1268;97480;-41
2022/01/31 13:15:04;;;;;;;36.00;10.60;;;;;;;1.44;78.54;97299.69;432928;1268;111187;-41
2022/01/31 13:33:44;;;;;;;27.80;10.70;;;;;;;1.68;78.44;97281.70;418797;1309;638733;-41
2022/01/31 13:43:51;;;;;;;48.50;14.10;;;;;;;1.74;78.60;97273.38;426539;1277;5383430;-39
2022/01/31 13:54:02;;;;;;;46.90;14.40;;;;;;;1.73;78.52;97262.40;430539;1277;108965;-40
2022/01/31 14:14:17;;;;;;;61.60;19.00;;;;;;;1.48;78.46;97256.40;430563;1277;95211;-40
2022/01/31 14:34:44;;;;;;;62.60;21.20;;;;;;;1.42;78.47;97253.96;430372;1277;108693;-40
2022/01/31 15:05:31;;;;;;;72.80;25.10;;;;;;;1.63;78.42;97267.18;432212;1274;95497;-41
2022/01/31 15:15:40;;;;;;;132.60;45.40;;;;;;;1.56;78.35;97265.86;432183;1273;96187;-40
2022/01/31 15:25:47;;;;;;;99.60;36.50;;;;;;;1.36;78.34;97264.19;432480;1272;109954;-40
2022/01/31 15:35:56;;;;;;;134.40;49.00;;;;;;;1.17;78.30;97270.40;432450;1272;108696;-39
2022/01/31 15:46:04;;;;;;;79.60;29.60;;;;;;;0.95;78.31;97275.05;432252;1272;108989;-40
2022/01/31 15:56:12;;;;;;;79.30;31.10;;;;;;;0.78;78.56;97268.92;432336;1274;95649;-39
2022/01/31 16:06:19;;;;;;;84.80;35.50;;;;;;;0.73;78.77;97275.69;432242;1272;96191;-41
2022/01/31 16:16:27;;;;;;;85.30;35.10;;;;;;;0.80;78.77;97282.13;432308;1274;109762;-40
2022/01/31 16:26:34;;;;;;;91.30;34.30;;;;;;;0.89;78.98;97286.23;432729;1271;108840;-40
2022/01/31 16:36:44;;;;;;;112.10;42.40;;;;;;;0.82;79.01;97293.41;432848;1269;96134;-40
2022/01/31 16:46:52;;;;;;;106.10;40.30;;;;;;;0.69;79.03;97297.73;432733;1271;95341;-40
2022/01/31 16:56:59;;;;;;;112.30;44.90;;;;;;;0.51;79.15;97296.92;432947;1271;109699;-41
2022/01/31 17:07:06;;;;;;;144.20;51.80;;;;;;;0.26;79.26;97302.95;432860;1270;108834;-42
2022/01/31 17:17:14;;;;;;;107.30;43.20;;;;;;;0.12;79.22;97313.11;432879;1270;108197;-40
2022/01/31 17:27:21;;;;;;;118.50;43.90;;;;;;;0.09;79.32;97319.35;432617;1271;96263;-41
2022/01/31 17:37:29;;;;;;;158.50;57.80;;;;;;;-0.07;79.29;97333.30;432633;1271;109830;-40
2022/01/31 17:47:35;;;;;;;181.50;67.10;;;;;;;-0.14;79.61;97336.13;432281;1270;109254;-40
2022/01/31 17:57:41;;;;;;;182.40;63.50;;;;;;;-0.23;80.05;97349.59;432847;1269;108787;-40
2022/01/31 18:07:48;;;;;;;182.60;68.10;;;;;;;-0.37;80.01;97355.83;432636;1271;95599;-41
2022/01/31 18:18:01;;;;;;;190.80;73.10;;;;;;;-0.47;80.36;97362.99;432729;1271;95514;-41
2022/01/31 18:28:08;;;;;;;156.30;59.90;;;;;;;-0.44;80.58;97363.94;432753;1271;109710;-40
2022/01/31 18:38:14;;;;;;;140.70;61.90;;;;;;;-0.29;80.65;97367.65;432922;1271;108706;-40
2022/01/31 18:58:32;;;;;;;203.80;84.00;;;;;;;0.10;81.09;97379.73;432762;1270;109723;-41
2022/01/31 19:08:40;;;;;;;220.00;87.00;;;;;;;0.09;81.06;97380.88;432993;1271;108897;-40
2022/01/31 19:18:49;;;;;;;211.40;84.10;;;;;;;0.00;81.35;97392.75;432682;1271;108849;-41
2022/01/31 19:28:56;;;;;;;213.60;87.00;;;;;;;-0.10;81.30;97408.69;432914;1269;95853;-43
2022/01/31 19:39:14;;;;;;;162.90;74.90;;;;;;;-0.10;81.36;97425.16;432875;1269;95974;-41
2022/01/31 19:49:22;;;;;;;144.40;63.90;;;;;;;-0.02;81.44;97435.31;432878;1271;110039;-40
2022/01/31 19:59:29;;;;;;;164.40;73.20;;;;;;;0.11;81.56;97441.48;432869;1269;108821;-41
2022/01/31 20:09:38;;;;;;;216.70;89.00;;;;;;;0.29;81.63;97458.36;432901;1270;95996;-44
2022/01/31 20:19:46;;;;;;;177.20;72.20;;;;;;;0.30;81.69;97457.77;432767;1271;96525;-41
2022/01/31 20:29:53;;;;;;;152.80;55.30;;;;;;;0.04;81.53;97454.61;432824;1270;109905;-40
2022/01/31 20:50:26;;;;;;;81.80;36.10;;;;;;;-0.17;81.92;97467.85;432903;1271;108868;-41
2022/01/31 21:00:39;;;;;;;106.10;44.50;;;;;;;-0.06;82.15;97484.30;432908;1270;95615;-41
2022/01/31 21:10:46;;;;;;;86.50;35.10;;;;;;;0.11;82.30;97497.93;432381;1270;109426;-41
2022/01/31 21:20:53;;;;;;;115.20;45.60;;;;;;;0.12;81.93;97506.37;432898;1269;109097;-40
2022/01/31 21:31:01;;;;;;;114.00;45.90;;;;;;;-0.04;82.09;97533.98;432804;1271;108772;-41
2022/01/31 21:41:09;;;;;;;;;;;;;;;-0.11;82.32;97547.79;432882;1270;95294;-40
2022/01/31 22:01:22;;;;;;;72.00;24.90;;;;;;;-0.02;82.89;97551.13;432338;1271;109769;-40
2022/01/31 22:21:54;;;;;;;72.10;28.50;;;;;;;0.09;83.08;97552.62;432902;1271;95721;-40
2022/01/31 22:32:01;;;;;;;87.50;29.90;;;;;;;0.07;83.09;97563.05;432890;1270;95693;-41
2022/01/31 22:42:08;;;;;;;51.50;22.10;;;;;;;-0.05;83.45;97574.45;432817;1271;109143;-44
2022/01/31 22:52:15;;;;;;;55.60;20.50;;;;;;;-0.02;83.56;97586.39;432355;1271;108821;-41
2022/01/31 23:02:22;;;;;;;62.30;21.00;;;;;;;-0.00;83.73;97595.17;432308;1271;96130;-39
2022/01/31 23:12:34;;;;;;;48.80;20.70;;;;;;;0.08;83.60;97601.27;432452;1269;109781;-40
2022/01/31 23:54:02;;;;;;;73.80;22.00;;;;;;;-0.05;83.99;97624.98;432423;1270;109731;-41
